Portada
METAR-TAF:

METAR-TAF

Aeropuertos :

Yap, Yap Island, Micronesia

Aeropuerto Internacional de Yap

latitud: 09-29N, longitud: 138-05E, altitud: 28 m

Observación

El informe se hizo hace 25 minutos, a las 00:55 UTC
Viento 6 kt con dirección variable
Temperatura 30°C
Humedad 79%
Presión 1011 hPa
Visibilidad: 19.3 km
Escasas nubes a una altura de 1600 ft
Cielo nuboso a una altura de 13000 ft
Cielo nuboso a una altura de 30000 ft

METAR: PTYA 270055Z VRB06KT 12SM FEW016 BKN130 BKN300 30/26 A2984 RMK SLP105 T02960261

Hora: 11:20 (01:20 UTC)

Pronóstico

El informe se hizo hace 1 hora y 49 minutos, a las 23:31 UTC
Pronóstico válido del 27 a las 00 UTC al 27 a las 24 UTC
Viento 11 kt del sur-sureste
Visibilidad: 10 km
Nubes dispersas a una altura de 1500 ft
Cielo nuboso a una altura de 13000 ft
chaparrones en las proximidades

TAF: PTYA 262331Z 2700/2724 16011KT P6SM VCSH SCT015 BKN130

Observaciones y pronósticos meteorológicos de más de 4000 aeropuertos (mensajes METAR y TAF).

Los puntos amarillos y rojos representan las estaciones disponibles.

Ponga el ratón en el punto deseado para ver el nombre de la estación.

Haga clic para ver las observaciones y los pronósticos meteorológicos.

Para cambiar el mapa : haga clic en los botones verdes con una cruz de color negro para hacer un zoom, en el botón verde con un guión para alejar o en las flechas verdes para mapas adyacentes.


METAR-TAF: